首页
METAR-TAF:

METAR-TAF

机场 :

Savannah/Hilton Head International Airport

薩凡納, 喬治亞, 美国

纬度: 32-07-08N, 经度: 081-12-08W, 海拔: 15米

当前天气观测

该预报发布于38分钟前的16:53 UTC
风速4节,风向东南
温度 25°C
湿度 89%
气压 1017 hPa
能見度: 16.1公里
少量云层高于1900英尺
多云层高于5000英尺
阴天层高于8000英尺
小雨

METAR: KSAV 041653Z 13004KT 10SM -RA FEW019 BKN050 OVC080 25/23 A3004 RMK AO2 RAE1557B15 SLP172 P0000 T02500228

时间: 13:31 (17:31 UTC)

预报

该预报发布于5小时和54分钟前的11:37 UTC
预报有效从04日的 12点(UTC)到 05日的 12点(UTC)
风速4节,风向多变
能見度: 10公里
少量云层高于2500英尺
阴天层高于15000英尺
从 04日的 1400点(UTC)
风速8节,风向
能見度: 10公里
散云层高于2500英尺
多云层高于4000英尺
阵雨
从 04日的 1800点(UTC)
风速12节,风向南转南东
能見度: 10公里
散云层高于3000英尺
多云层高于5000英尺
附近有阵雨
从 05日的 0000点(UTC)
风速7节,风向
能見度: 10公里
散云层高于3000英尺
多云层高于4000英尺
附近有阵雨

TAF: KSAV 041137Z 0412/0512 VRB04KT P6SM FEW025 OVC150 FM041400 17008KT P6SM SHRA SCT025 BKN040 FM041800 15012KT P6SM VCSH SCT030 BKN050 FM050000 17007KT P6SM VCSH SCT030 BKN040

超过4000个机场的气象观测和天气预报(METAR&TAF报告)。

可查询的气象台以黄色和红色小点在地图上表示。

将鼠标移到小点上方,可查看气象台名称。

然后点击查看天气观测和预报。

如需切换地图:点击带黑十字的绿色按钮放大地图;点击带横线的绿色按钮缩小地图;或者点击绿色箭头查看邻近地区的地图。


METAR-TAF: